createdAt,value
2023-02-08T00:00:10.306Z,3.78
2023-02-08T00:02:37.172Z,2.72
2023-02-08T00:05:04.028Z,3.28
2023-02-08T00:07:31.088Z,3.58
2023-02-08T00:09:57.915Z,2.30
2023-02-08T00:12:24.694Z,2.35
2023-02-08T00:14:51.522Z,2.53
2023-02-08T00:17:18.291Z,3.13
2023-02-08T00:19:45.056Z,3.53
2023-02-08T00:22:11.796Z,3.00
2023-02-08T00:24:39.265Z,3.30
2023-02-08T00:27:06.029Z,4.03
2023-02-08T00:29:32.859Z,5.50
2023-02-08T00:31:59.637Z,3.58
2023-02-08T00:34:26.508Z,3.13
2023-02-08T00:36:53.240Z,3.85
2023-02-08T00:39:21.241Z,4.20
2023-02-08T00:41:48.297Z,4.50
2023-02-08T00:44:15.144Z,5.30
2023-02-08T00:46:41.976Z,3.55
2023-02-08T00:49:08.783Z,3.80
2023-02-08T00:51:35.740Z,3.75
2023-02-08T00:54:02.609Z,3.38
2023-02-08T00:56:29.379Z,3.35
2023-02-08T00:58:56.148Z,3.38
2023-02-08T01:01:24.694Z,3.20
2023-02-08T01:03:51.437Z,2.30
2023-02-08T01:06:18.749Z,3.20
2023-02-08T01:08:45.736Z,3.53
2023-02-08T01:11:16.174Z,2.50
2023-02-08T01:13:42.917Z,1.23
2023-02-08T01:16:18.685Z,2.75
2023-02-08T01:18:47.516Z,3.03
2023-02-08T01:21:17.182Z,3.45
2023-02-08T01:23:44.720Z,2.50
2023-02-08T01:26:13.142Z,2.13
2023-02-08T01:28:40.378Z,2.40
2023-02-08T01:31:19.726Z,2.00
2023-02-08T01:33:46.576Z,3.30
2023-02-08T01:36:14.238Z,2.85
2023-02-08T01:38:41.047Z,2.50
2023-02-08T01:41:12.104Z,2.80
2023-02-08T01:44:02.971Z,2.88
2023-02-08T01:46:30.693Z,2.25
2023-02-08T01:49:06.354Z,2.67
2023-02-08T01:51:39.368Z,1.70
2023-02-08T01:54:09.348Z,2.92
2023-02-08T01:56:41.376Z,2.70
2023-02-08T01:59:14.301Z,2.22
2023-02-08T02:01:43.507Z,2.17
2023-02-08T02:04:10.640Z,2.15
2023-02-08T02:06:41.811Z,3.28
2023-02-08T02:09:31.615Z,2.50
2023-02-08T02:11:59.308Z,2.53
2023-02-08T02:14:27.062Z,2.25
2023-02-08T02:16:53.887Z,2.45
2023-02-08T02:19:33.637Z,2.78
2023-02-08T02:22:20.877Z,2.45
2023-02-08T02:25:15.187Z,2.70
2023-02-08T02:28:08.910Z,2.40
2023-02-08T02:31:09.865Z,2.60
2023-02-08T02:34:11.829Z,2.50
2023-02-08T02:36:41.759Z,2.35
2023-02-08T02:39:24.031Z,3.28
2023-02-08T02:42:29.516Z,2.63
2023-02-08T02:45:34.880Z,2.70
2023-02-08T02:48:33.749Z,3.65
2023-02-08T02:51:10.088Z,3.35
2023-02-08T02:53:52.114Z,2.67
2023-02-08T02:56:24.237Z,3.00
2023-02-08T02:58:53.329Z,2.97
2023-02-08T03:01:30.336Z,2.13
2023-02-08T03:03:57.960Z,2.22
2023-02-08T03:07:09.249Z,2.38
2023-02-08T03:10:11.282Z,2.75
2023-02-08T03:13:03.082Z,3.42
2023-02-08T03:16:06.704Z,2.38
2023-02-08T03:19:04.886Z,2.83
2023-02-08T03:21:47.378Z,3.55
2023-02-08T03:24:28.761Z,2.22
2023-02-08T03:27:01.752Z,2.90
2023-02-08T03:29:47.836Z,2.90
2023-02-08T03:32:47.075Z,3.00
2023-02-08T03:35:28.044Z,2.47
2023-02-08T03:38:04.976Z,2.10
2023-02-08T03:40:37.714Z,1.80
2023-02-08T03:43:13.124Z,3.28
2023-02-08T03:45:46.192Z,2.67
2023-02-08T03:48:16.961Z,1.73
2023-02-08T03:50:49.474Z,2.60
2023-02-08T03:53:20.126Z,3.70
2023-02-08T03:55:49.878Z,3.85
2023-02-08T03:58:23.581Z,3.13
2023-02-08T04:01:12.106Z,2.60
2023-02-08T04:03:40.513Z,3.22
2023-02-08T04:06:07.646Z,2.60
2023-02-08T04:08:34.592Z,2.45
2023-02-08T04:11:01.457Z,2.72
2023-02-08T04:13:28.358Z,2.70
2023-02-08T04:15:55.274Z,2.47
2023-02-08T04:18:22.271Z,2.28
2023-02-08T04:20:49.200Z,2.28
2023-02-08T04:23:16.239Z,2.83
2023-02-08T04:25:43.811Z,3.00
2023-02-08T04:28:10.738Z,4.15
2023-02-08T04:30:37.716Z,3.78
2023-02-08T04:33:04.761Z,4.15
2023-02-08T04:35:31.719Z,4.53
2023-02-08T04:37:58.648Z,4.47
2023-02-08T04:40:25.594Z,3.20
2023-02-08T04:42:52.642Z,2.88
2023-02-08T04:45:19.792Z,3.00
2023-02-08T04:47:46.736Z,2.78
2023-02-08T04:50:14.736Z,3.75
2023-02-08T04:52:41.708Z,2.33
2023-02-08T04:55:08.790Z,1.88
2023-02-08T04:57:35.712Z,2.58
2023-02-08T05:00:02.801Z,2.80
2023-02-08T05:02:29.995Z,3.22
2023-02-08T05:04:57.096Z,2.92
2023-02-08T05:07:24.046Z,3.40
2023-02-08T05:09:51.016Z,3.38
2023-02-08T05:12:18.206Z,2.25
2023-02-08T05:14:45.120Z,2.08
2023-02-08T05:17:12.139Z,3.28
2023-02-08T05:19:39.037Z,4.20
2023-02-08T05:22:05.991Z,3.28
2023-02-08T05:24:32.857Z,2.15
2023-02-08T05:26:59.904Z,3.08
2023-02-08T05:29:26.796Z,2.67
2023-02-08T05:31:53.657Z,2.10
2023-02-08T05:34:20.547Z,2.22
2023-02-08T05:36:47.466Z,1.77
2023-02-08T05:39:14.373Z,2.63
2023-02-08T05:41:41.215Z,1.80
2023-02-08T05:44:08.109Z,2.38
2023-02-08T05:46:37.111Z,2.95
2023-02-08T05:49:05.085Z,1.88
2023-02-08T05:51:32.090Z,2.80
2023-02-08T05:53:59.104Z,2.95
2023-02-08T05:56:26.118Z,3.42
2023-02-08T05:58:53.040Z,3.33
2023-02-08T06:01:20.063Z,2.58
2023-02-08T06:03:47.224Z,2.35
2023-02-08T06:06:14.249Z,3.92
2023-02-08T06:08:41.240Z,4.38
2023-02-08T06:11:08.344Z,3.17
2023-02-08T06:13:35.270Z,2.53
2023-02-08T06:16:02.347Z,4.05
2023-02-08T06:18:29.318Z,5.00
2023-02-08T06:20:56.223Z,3.15
2023-02-08T06:23:23.959Z,4.18
2023-02-08T06:25:51.224Z,4.15
2023-02-08T06:28:18.369Z,4.40
2023-02-08T06:30:45.385Z,2.67
2023-02-08T06:33:15.134Z,2.97
2023-02-08T06:35:51.202Z,2.88
2023-02-08T06:38:18.365Z,3.15
2023-02-08T06:40:47.923Z,1.42
2023-02-08T06:43:15.417Z,2.72
2023-02-08T06:45:45.764Z,4.45
2023-02-08T06:48:13.499Z,2.28
2023-02-08T06:50:40.732Z,1.98
2023-02-08T06:53:07.874Z,2.38
2023-02-08T06:55:34.758Z,3.55
2023-02-08T06:58:01.983Z,3.95
2023-02-08T07:00:29.179Z,1.92
2023-02-08T07:02:56.384Z,1.88
2023-02-08T07:05:23.427Z,3.05
2023-02-08T07:07:50.406Z,4.03
2023-02-08T07:10:17.518Z,3.90
2023-02-08T07:12:44.522Z,2.95
2023-02-08T07:15:13.364Z,2.60
2023-02-08T07:17:40.534Z,3.42
2023-02-08T07:20:08.613Z,3.55
2023-02-08T07:22:35.731Z,3.80
2023-02-08T07:25:02.613Z,4.43
2023-02-08T07:27:29.528Z,4.05
2023-02-08T07:29:56.418Z,3.15
2023-02-08T07:32:23.383Z,2.92
2023-02-08T07:34:50.347Z,2.83
2023-02-08T07:37:17.277Z,2.58
2023-02-08T07:39:45.331Z,3.03
2023-02-08T07:42:12.550Z,2.30
2023-02-08T07:44:40.188Z,2.15
2023-02-08T07:47:07.557Z,2.53
2023-02-08T07:49:34.817Z,3.10
2023-02-08T07:52:02.596Z,2.05
2023-02-08T07:54:29.985Z,2.63
2023-02-08T07:56:57.334Z,3.03
2023-02-08T07:59:24.431Z,1.80
2023-02-08T08:01:59.537Z,1.70
2023-02-08T08:04:26.774Z,2.58
2023-02-08T08:09:34.642Z,3.95
2023-02-08T08:12:02.383Z,2.83
2023-02-08T08:14:29.338Z,2.70
2023-02-08T08:16:56.352Z,2.22
2023-02-08T08:19:23.474Z,2.30
2023-02-08T08:21:50.476Z,2.35
2023-02-08T08:24:17.460Z,2.85
2023-02-08T08:26:44.538Z,2.92
2023-02-08T08:29:11.877Z,2.38
2023-02-08T08:31:38.942Z,2.83
2023-02-08T08:34:07.877Z,3.78
2023-02-08T08:36:38.743Z,2.70
2023-02-08T08:39:05.648Z,2.65
2023-02-08T08:41:32.700Z,3.63
2023-02-08T08:43:59.719Z,4.82
2023-02-08T08:46:26.838Z,7.20
2023-02-08T08:49:01.942Z,8.18
2023-02-08T08:51:29.042Z,8.20
2023-02-08T08:53:55.917Z,5.47
2023-02-08T08:56:22.767Z,6.03
2023-02-08T08:58:50.001Z,6.03
2023-02-08T09:01:17.084Z,5.75
2023-02-08T09:03:44.324Z,6.35
2023-02-08T09:06:11.817Z,5.43
2023-02-08T09:08:38.734Z,4.97
2023-02-08T09:11:13.044Z,5.47
2023-02-08T09:13:40.605Z,7.38
2023-02-08T09:16:11.616Z,6.72
2023-02-08T09:18:38.952Z,6.32
2023-02-08T09:21:10.952Z,9.55
2023-02-08T09:23:38.393Z,12.05
2023-02-08T09:26:15.510Z,8.90
2023-02-08T09:28:43.329Z,10.73
2023-02-08T09:31:12.448Z,10.15
2023-02-08T09:33:39.730Z,9.60
2023-02-08T09:36:07.954Z,10.32
2023-02-08T09:38:35.173Z,6.70
2023-02-08T09:41:32.969Z,8.68
2023-02-08T09:44:24.114Z,9.60
2023-02-08T09:47:22.783Z,8.63
2023-02-08T09:50:05.046Z,8.75
2023-02-08T09:53:16.881Z,11.48
2023-02-08T09:55:51.811Z,9.23
2023-02-08T09:58:26.436Z,10.35
2023-02-08T10:00:55.268Z,12.52
2023-02-08T10:03:37.199Z,13.73
2023-02-08T10:06:06.257Z,10.80
2023-02-08T10:08:35.499Z,9.25
2023-02-08T10:11:23.827Z,11.02
2023-02-08T10:14:15.408Z,9.25
2023-02-08T10:17:10.326Z,12.52
2023-02-08T10:19:59.719Z,12.57
2023-02-08T10:22:47.812Z,12.52
2023-02-08T10:25:29.735Z,11.38
2023-02-08T10:28:16.908Z,11.63
2023-02-08T10:31:07.582Z,9.95
2023-02-08T10:33:40.617Z,11.23
2023-02-08T10:36:19.624Z,9.50
2023-02-08T10:38:51.326Z,12.45
2023-02-08T10:41:27.052Z,9.65
2023-02-08T10:44:07.020Z,10.45
2023-02-08T10:47:03.212Z,13.27
2023-02-08T10:49:35.491Z,12.38
2023-02-08T10:52:02.834Z,12.02
2023-02-08T10:54:30.008Z,10.57
2023-02-08T10:57:36.408Z,11.60
2023-02-08T11:00:09.746Z,9.70
2023-02-08T11:02:41.740Z,9.90
2023-02-08T11:05:19.521Z,9.57
2023-02-08T11:07:46.992Z,10.93
2023-02-08T11:10:20.075Z,10.65
2023-02-08T11:13:00.070Z,9.90
2023-02-08T11:15:33.257Z,10.25
2023-02-08T11:18:02.406Z,9.23
2023-02-08T11:20:37.783Z,11.98
2023-02-08T11:23:31.027Z,11.27
2023-02-08T11:26:35.267Z,10.85
2023-02-08T11:29:16.146Z,10.98
2023-02-08T11:31:54.986Z,10.48
2023-02-08T11:34:29.711Z,12.30
2023-02-08T11:36:58.593Z,9.90
2023-02-08T11:39:38.671Z,9.23
2023-02-08T11:42:07.480Z,10.63
2023-02-08T11:44:41.892Z,10.52
2023-02-08T11:47:11.938Z,11.98
2023-02-08T11:49:44.356Z,10.77
2023-02-08T11:52:31.971Z,9.02
2023-02-08T11:55:17.467Z,10.00
2023-02-08T11:58:03.209Z,6.65
2023-02-08T12:00:35.268Z,9.18
2023-02-08T12:03:16.210Z,10.05
2023-02-08T12:06:11.795Z,10.75
2023-02-08T12:09:02.948Z,9.27
2023-02-08T12:11:41.836Z,13.18
2023-02-08T12:14:53.432Z,12.32
2023-02-08T12:17:41.874Z,12.68
2023-02-08T12:20:20.524Z,11.82
2023-02-08T12:22:59.462Z,7.45
2023-02-08T12:25:53.115Z,7.50
2023-02-08T12:28:49.172Z,8.05
2023-02-08T12:31:54.932Z,10.88
2023-02-08T12:34:33.752Z,11.95
2023-02-08T12:37:29.880Z,11.20
2023-02-08T12:40:36.245Z,11.65
2023-02-08T12:43:40.497Z,10.15
2023-02-08T12:46:27.663Z,12.13
2023-02-08T12:49:06.176Z,9.05
2023-02-08T12:51:48.264Z,8.45
2023-02-08T12:54:35.386Z,9.32
2023-02-08T12:57:03.747Z,7.00
2023-02-08T12:59:41.494Z,6.70
2023-02-08T13:02:20.619Z,8.75
2023-02-08T13:04:54.153Z,14.32
2023-02-08T13:07:35.243Z,11.35
2023-02-08T13:10:04.857Z,10.32
2023-02-08T13:12:53.629Z,13.63
2023-02-08T13:15:37.843Z,12.50
2023-02-08T13:18:19.145Z,12.50
2023-02-08T13:20:58.265Z,11.52
2023-02-08T13:23:52.030Z,11.73
2023-02-08T13:26:28.166Z,11.25
2023-02-08T13:29:00.972Z,10.98
2023-02-08T13:31:41.227Z,13.68
2023-02-08T13:34:19.805Z,11.98
2023-02-08T13:36:55.682Z,11.70
2023-02-08T13:39:46.664Z,11.07
2023-02-08T13:42:27.687Z,10.18
2023-02-08T13:44:57.744Z,7.88
2023-02-08T13:47:34.528Z,8.75
2023-02-08T13:50:07.576Z,7.95
2023-02-08T13:52:46.906Z,10.45
2023-02-08T13:55:48.192Z,8.13
2023-02-08T13:58:15.155Z,7.00
2023-02-08T14:01:17.358Z,6.50
2023-02-08T14:03:44.321Z,6.15
2023-02-08T14:06:30.956Z,7.22
2023-02-08T14:09:17.633Z,7.07
2023-02-08T14:12:05.209Z,6.95
2023-02-08T14:14:38.716Z,9.23
2023-02-08T14:17:05.537Z,7.68
2023-02-08T14:19:35.329Z,7.38
2023-02-08T14:22:18.486Z,10.88
2023-02-08T14:25:05.895Z,12.02
2023-02-08T14:27:38.703Z,10.75
2023-02-08T14:30:17.716Z,8.57
2023-02-08T14:32:47.850Z,7.22
2023-02-08T14:35:22.524Z,9.30
2023-02-08T14:37:53.879Z,6.97
2023-02-08T14:40:25.121Z,5.55
2023-02-08T14:43:20.137Z,5.93
2023-02-08T14:45:52.254Z,9.88
2023-02-08T14:48:42.569Z,9.13
2023-02-08T14:51:12.634Z,7.95
2023-02-08T14:53:42.506Z,7.30
2023-02-08T14:56:21.717Z,8.10
2023-02-08T14:58:57.521Z,11.25
2023-02-08T15:01:27.454Z,9.27
2023-02-08T15:04:02.077Z,10.18
2023-02-08T15:06:38.831Z,7.50
2023-02-08T15:09:06.797Z,9.73
2023-02-08T15:11:35.640Z,11.27
2023-02-08T15:14:06.045Z,14.18
2023-02-08T15:16:36.816Z,11.45
2023-02-08T15:19:05.570Z,10.57
2023-02-08T15:21:36.703Z,9.90
2023-02-08T15:24:15.749Z,9.82
2023-02-08T15:26:53.748Z,6.40
2023-02-08T15:29:42.734Z,6.95
2023-02-08T15:32:14.344Z,6.57
2023-02-08T15:34:44.596Z,9.23
2023-02-08T15:37:19.782Z,7.97
2023-02-08T15:39:51.426Z,6.55
2023-02-08T15:42:20.826Z,8.05
2023-02-08T15:44:48.262Z,9.15
2023-02-08T15:47:28.791Z,6.95
2023-02-08T15:49:56.698Z,7.15
2023-02-08T15:52:28.593Z,8.15
2023-02-08T15:54:56.111Z,7.22
2023-02-08T15:57:58.254Z,7.00
2023-02-08T16:00:31.863Z,5.53
2023-02-08T16:03:09.741Z,5.72
2023-02-08T16:05:38.269Z,7.00
2023-02-08T16:08:06.432Z,7.10
2023-02-08T16:10:42.954Z,7.18
2023-02-08T16:13:39.011Z,7.28
2023-02-08T16:16:19.661Z,6.10
2023-02-08T16:18:50.316Z,6.07
2023-02-08T16:21:26.799Z,4.43
2023-02-08T16:24:16.716Z,3.90
2023-02-08T16:26:45.770Z,4.68
2023-02-08T16:29:33.474Z,4.70
2023-02-08T16:32:28.370Z,3.67
2023-02-08T16:34:55.826Z,3.67
2023-02-08T16:37:31.332Z,4.88
2023-02-08T16:40:00.235Z,4.97
2023-02-08T16:42:42.831Z,4.45
2023-02-08T16:45:14.967Z,4.80
2023-02-08T16:47:50.862Z,3.85
2023-02-08T16:50:23.820Z,4.00
2023-02-08T16:53:01.956Z,4.45
2023-02-08T16:55:32.032Z,4.55
2023-02-08T16:57:59.496Z,5.05
2023-02-08T17:00:35.291Z,4.50
2023-02-08T17:03:02.677Z,3.15
2023-02-08T17:05:37.176Z,3.53
2023-02-08T17:08:12.746Z,2.00
2023-02-08T17:10:39.738Z,2.60
2023-02-08T17:13:19.747Z,3.50
2023-02-08T17:15:53.015Z,3.53
2023-02-08T17:18:21.048Z,1.98
2023-02-08T17:20:48.586Z,2.20
2023-02-08T17:23:16.500Z,1.95
2023-02-08T17:25:44.289Z,2.28
2023-02-08T17:28:19.929Z,2.25
2023-02-08T17:30:48.017Z,2.60
2023-02-08T17:33:20.793Z,2.55
2023-02-08T17:35:50.792Z,3.03
2023-02-08T17:38:18.636Z,2.78
2023-02-08T17:40:45.926Z,3.65
2023-02-08T17:43:13.915Z,3.90
2023-02-08T17:45:43.806Z,3.22
2023-02-08T17:48:13.670Z,3.58
2023-02-08T17:50:44.243Z,4.53
2023-02-08T17:53:11.619Z,3.28
2023-02-08T17:55:42.251Z,4.13
2023-02-08T17:58:09.492Z,4.70
2023-02-08T18:00:36.888Z,4.45
2023-02-08T18:03:04.000Z,3.53
2023-02-08T18:05:31.353Z,3.95
2023-02-08T18:07:58.478Z,3.35
2023-02-08T18:10:26.315Z,3.45
2023-02-08T18:12:53.283Z,3.78
2023-02-08T18:15:21.922Z,2.63
2023-02-08T18:17:50.696Z,4.50
2023-02-08T18:20:18.501Z,3.75
2023-02-08T18:22:46.156Z,3.15
2023-02-08T18:25:13.992Z,2.72
2023-02-08T18:27:41.081Z,4.00
2023-02-08T18:30:09.217Z,2.13
2023-02-08T18:32:36.217Z,3.55
2023-02-08T18:35:04.323Z,3.20
2023-02-08T18:37:33.372Z,3.90
2023-02-08T18:40:00.997Z,5.25
2023-02-08T18:42:28.287Z,4.35
2023-02-08T18:44:55.344Z,4.40
2023-02-08T18:47:22.395Z,4.15
2023-02-08T18:49:56.316Z,2.53
2023-02-08T18:52:26.508Z,2.72
2023-02-08T18:54:53.508Z,3.00
2023-02-08T18:57:20.862Z,3.00
2023-02-08T18:59:47.915Z,2.38
2023-02-08T19:02:21.909Z,3.15
2023-02-08T19:04:49.086Z,2.85
2023-02-08T19:07:16.363Z,2.15
2023-02-08T19:09:44.253Z,2.90
2023-02-08T19:12:15.422Z,4.03
2023-02-08T19:14:43.515Z,4.03
2023-02-08T19:17:12.360Z,3.25
2023-02-08T19:19:40.631Z,4.88
2023-02-08T19:22:07.654Z,4.55
2023-02-08T19:24:34.535Z,2.65
2023-02-08T19:27:01.795Z,2.38
2023-02-08T19:29:29.229Z,3.30
2023-02-08T19:31:58.240Z,3.30
2023-02-08T19:34:25.694Z,3.22
2023-02-08T19:36:54.385Z,4.05
2023-02-08T19:39:24.937Z,3.20
2023-02-08T19:41:58.659Z,3.13
2023-02-08T19:44:30.296Z,3.10
2023-02-08T19:47:00.484Z,3.20
2023-02-08T19:49:28.546Z,2.55
2023-02-08T19:51:55.935Z,3.20
2023-02-08T19:54:23.113Z,2.50
2023-02-08T19:56:50.594Z,2.78
2023-02-08T19:59:20.507Z,3.35
2023-02-08T20:01:47.979Z,2.55
2023-02-08T20:04:15.569Z,2.85
2023-02-08T20:06:45.072Z,2.95
2023-02-08T20:09:13.487Z,3.38
2023-02-08T20:11:56.416Z,3.25
2023-02-08T20:14:35.998Z,2.75
2023-02-08T20:17:04.164Z,2.10
2023-02-08T20:19:31.712Z,2.30
2023-02-08T20:21:58.746Z,3.00
2023-02-08T20:24:26.097Z,2.83
2023-02-08T20:26:53.031Z,2.90
2023-02-08T20:29:19.984Z,2.50
2023-02-08T20:31:49.633Z,3.17
2023-02-08T20:34:18.912Z,3.38
2023-02-08T20:37:04.494Z,3.30
2023-02-08T20:39:33.151Z,1.98
2023-02-08T20:42:00.234Z,2.72
2023-02-08T20:44:28.735Z,3.00
2023-02-08T20:46:55.807Z,3.03
2023-02-08T20:49:25.767Z,2.78
2023-02-08T20:51:54.378Z,2.67
2023-02-08T20:54:24.682Z,3.05
2023-02-08T20:56:53.842Z,2.95
2023-02-08T20:59:20.818Z,2.42
2023-02-08T21:01:48.052Z,2.95
2023-02-08T21:04:17.252Z,3.10
2023-02-08T21:06:46.235Z,2.05
2023-02-08T21:09:15.407Z,2.60
2023-02-08T21:11:42.863Z,2.42
2023-02-08T21:14:13.766Z,2.80
2023-02-08T21:16:40.812Z,2.30
2023-02-08T21:19:07.997Z,2.75
2023-02-08T21:21:34.873Z,3.65
2023-02-08T21:24:02.090Z,1.58
2023-02-08T21:26:29.372Z,3.05
2023-02-08T21:28:56.891Z,2.90
2023-02-08T21:31:24.933Z,2.50
2023-02-08T21:33:53.325Z,2.70
2023-02-08T21:36:24.238Z,2.83
2023-02-08T21:38:51.531Z,3.28
2023-02-08T21:41:24.377Z,2.97
2023-02-08T21:43:53.948Z,2.78
2023-02-08T21:46:21.134Z,2.33
2023-02-08T21:49:06.899Z,2.92
2023-02-08T21:51:52.584Z,3.72
2023-02-08T21:54:44.797Z,2.78
2023-02-08T21:57:14.941Z,2.88
2023-02-08T21:59:42.590Z,3.83
2023-02-08T22:02:25.991Z,3.65
2023-02-08T22:04:54.601Z,4.50
2023-02-08T22:07:21.861Z,4.03
2023-02-08T22:09:48.952Z,4.72
2023-02-08T22:12:18.545Z,3.85
2023-02-08T22:14:45.487Z,3.15
2023-02-08T22:17:13.157Z,4.28
2023-02-08T22:19:41.616Z,3.28
2023-02-08T22:22:10.174Z,3.75
2023-02-08T22:24:37.109Z,3.28
2023-02-08T22:27:04.209Z,3.83
2023-02-08T22:29:31.150Z,3.92
2023-02-08T22:31:58.314Z,4.35
2023-02-08T22:34:27.117Z,3.58
2023-02-08T22:36:54.198Z,3.97
2023-02-08T22:39:21.357Z,3.70
2023-02-08T22:41:48.501Z,4.38
2023-02-08T22:44:15.817Z,4.03
2023-02-08T22:46:42.830Z,4.20
2023-02-08T22:49:09.825Z,6.80
2023-02-08T22:51:36.783Z,4.57
2023-02-08T22:54:03.813Z,5.18
2023-02-08T22:56:30.798Z,3.75
2023-02-08T22:59:00.333Z,3.95
2023-02-08T23:01:28.739Z,3.72
2023-02-08T23:03:55.717Z,3.92
2023-02-08T23:06:22.594Z,4.00
2023-02-08T23:08:49.641Z,4.95
2023-02-08T23:11:16.881Z,4.20
2023-02-08T23:13:43.941Z,3.90
2023-02-08T23:16:16.264Z,4.43
2023-02-08T23:18:43.943Z,2.63
2023-02-08T23:21:14.398Z,3.72
2023-02-08T23:23:41.753Z,3.72
2023-02-08T23:26:11.403Z,4.18
2023-02-08T23:28:38.520Z,3.45
2023-02-08T23:31:11.508Z,3.72
2023-02-08T23:33:39.556Z,3.17
2023-02-08T23:36:15.882Z,3.30
2023-02-08T23:38:44.532Z,3.75
2023-02-08T23:41:14.782Z,3.80
2023-02-08T23:43:42.237Z,3.25
2023-02-08T23:46:11.735Z,4.07
2023-02-08T23:48:39.491Z,3.83
2023-02-08T23:51:07.434Z,2.20
2023-02-08T23:53:35.346Z,5.07
2023-02-08T23:56:17.439Z,4.28
2023-02-08T23:58:47.446Z,5.35
